Brightway — 9V8755 — position and weather

sailwx.info

Track history (hours):
 
Tides and Currents Weather Stations Pressure Air Temp Water Temp Dewpoint Dewpoint Depression Visibility Wind Speed Wind Dir Waves Ship Positions

Brightway

Last reported at 2017-Jun-26 11:26 UTC. Time now 2017-Jul-25 13:01 UTC.
Position S 05°06' E 010°33'.
Warning: this ship's position is 29 days out of date.

Length 274 m; draft 8.8 m.

Type: Tanker. MMSI: 566422000.

Date/timePositionNaut miles runAvg speedWind from/ knotsBaromVisibWave heightAir tempDewpointWater temp
2017-Jun-26 11:26S 05°06' E 010°33'1 3.4
2017-Jun-26 10:59S 05°04' E 010°34'1 1.2
2017-Jun-26 10:28S 05°05' E 010°34'0 1.0
2017-Jun-26 10:00S 05°05' E 010°35'1 1.2
2017-Jun-26 09:22S 05°05' E 010°35'  
2017-Jun-17 14:00S 31°30' E 030°17'611.8
2017-Jun-17 13:30S 31°26' E 030°22'612.3
2017-Jun-17 13:00S 31°21' E 030°26'612.6
2017-Jun-17 12:30S 31°17' E 030°31'612.4
2017-Jun-17 12:00S 31°12' E 030°36'611.9
2017-Jun-17 11:30S 31°07' E 030°40'612.2
2017-Jun-17 11:00S 31°03' E 030°45'6414.2
2017-Jun-17 06:31S 30°14' E 031°33'010.7
2017-Jun-17 06:31S 30°14' E 031°33'714.8
2017-Jun-17 06:01S 30°09' E 031°39'714.6
2017-Jun-17 05:31S 30°03' E 031°44'714.4
2017-Jun-17 05:00S 29°57' E 031°50'714.5
2017-Jun-17 04:30S 29°52' E 031°55'714.6
2017-Jun-17 04:01S 29°46' E 032°00'714.3
2017-Jun-17 03:30S 29°41' E 032°05'714.3
2017-Jun-17 03:00S 29°35' E 032°11'714.2
2017-Jun-17 02:30S 29°30' E 032°16'714.4
2017-Jun-17 02:00S 29°25' E 032°22'714.1
2017-Jun-17 01:30S 29°19' E 032°27'713.6
2017-Jun-17 01:00S 29°14' E 032°32'  
Track history (hours):
 
Tides and Currents Weather Stations Pressure Air Temp Water Temp Dewpoint Dewpoint Depression Visibility Wind Speed Wind Dir Waves Ship Positions

Brightway

Last reported at 2017-Jun-26 11:26 UTC. Time now 2017-Jul-25 13:01 UTC.
Position S 05°06' E 010°33'.
Warning: this ship's position is 29 days out of date.

Length 274 m; draft 8.8 m.

Type: Tanker. MMSI: 566422000.

Date/timePositionNaut miles runAvg speedWind from/ knotsBaromVisibWave heightAir tempDewpointWater temp
2017-Jun-26 11:26S 05°06' E 010°33'1 3.4
2017-Jun-26 10:59S 05°04' E 010°34'1 1.2
2017-Jun-26 10:28S 05°05' E 010°34'0 1.0
2017-Jun-26 10:00S 05°05' E 010°35'1 1.2
2017-Jun-26 09:22S 05°05' E 010°35'  
2017-Jun-17 14:00S 31°30' E 030°17'611.8
2017-Jun-17 13:30S 31°26' E 030°22'612.3
2017-Jun-17 13:00S 31°21' E 030°26'612.6
2017-Jun-17 12:30S 31°17' E 030°31'612.4
2017-Jun-17 12:00S 31°12' E 030°36'611.9
2017-Jun-17 11:30S 31°07' E 030°40'612.2
2017-Jun-17 11:00S 31°03' E 030°45'6414.2
2017-Jun-17 06:31S 30°14' E 031°33'010.7
2017-Jun-17 06:31S 30°14' E 031°33'714.8
2017-Jun-17 06:01S 30°09' E 031°39'714.6
2017-Jun-17 05:31S 30°03' E 031°44'714.4
2017-Jun-17 05:00S 29°57' E 031°50'714.5
2017-Jun-17 04:30S 29°52' E 031°55'714.6
2017-Jun-17 04:01S 29°46' E 032°00'714.3
2017-Jun-17 03:30S 29°41' E 032°05'714.3
2017-Jun-17 03:00S 29°35' E 032°11'714.2
2017-Jun-17 02:30S 29°30' E 032°16'714.4
2017-Jun-17 02:00S 29°25' E 032°22'714.1
2017-Jun-17 01:30S 29°19' E 032°27'713.6
2017-Jun-17 01:00S 29°14' E 032°32'  

Dump ship's entire track history